createdAt,value
2019-04-01T00:00:36.688Z,3.35
2019-04-01T00:03:06.747Z,2.12
2019-04-01T00:05:35.425Z,1.98
2019-04-01T00:08:04.101Z,2.20
2019-04-01T00:10:32.825Z,1.82
2019-04-01T00:13:01.471Z,2.47
2019-04-01T00:15:30.137Z,2.83
2019-04-01T00:17:58.823Z,1.75
2019-04-01T00:20:27.480Z,2.35
2019-04-01T00:22:56.230Z,2.22
2019-04-01T00:25:24.977Z,2.10
2019-04-01T00:27:53.629Z,2.25
2019-04-01T00:30:22.276Z,2.12
2019-04-01T00:32:50.946Z,1.77
2019-04-01T00:35:19.652Z,1.87
2019-04-01T00:37:48.307Z,2.00
2019-04-01T00:40:17.135Z,1.98
2019-04-01T00:42:56.414Z,2.58
2019-04-01T00:45:25.501Z,2.08
2019-04-01T00:47:54.147Z,1.80
2019-04-01T00:50:22.981Z,1.92
2019-04-01T00:52:51.651Z,2.47
2019-04-01T00:55:20.312Z,1.57
2019-04-01T00:57:48.994Z,2.33
2019-04-01T01:00:19.072Z,1.95
2019-04-01T01:02:47.728Z,1.82
2019-04-01T01:05:16.402Z,2.40
2019-04-01T01:07:45.078Z,2.50
2019-04-01T01:10:14.019Z,1.77
2019-04-01T01:12:42.679Z,1.92
2019-04-01T01:15:11.505Z,2.33
2019-04-01T01:17:40.513Z,2.00
2019-04-01T01:20:09.283Z,2.35
2019-04-01T01:22:37.935Z,2.08
2019-04-01T01:25:06.700Z,2.27
2019-04-01T01:27:35.348Z,2.55
2019-04-01T01:30:04.304Z,2.72
2019-04-01T01:32:32.976Z,2.37
2019-04-01T01:35:01.635Z,2.10
2019-04-01T01:37:30.395Z,2.95
2019-04-01T01:39:59.045Z,2.45
2019-04-01T01:42:27.777Z,2.27
2019-04-01T01:44:56.372Z,2.12
2019-04-01T01:47:25.040Z,2.50
2019-04-01T01:49:53.694Z,2.42
2019-04-01T01:52:22.368Z,2.10
2019-04-01T01:54:51.021Z,2.33
2019-04-01T01:57:19.680Z,2.25
2019-04-01T01:59:48.410Z,3.02
2019-04-01T02:02:17.010Z,2.30
2019-04-01T02:04:45.681Z,2.45
2019-04-01T02:07:14.358Z,2.15
2019-04-01T02:09:43.023Z,2.15
2019-04-01T02:12:11.686Z,2.65
2019-04-01T02:14:40.375Z,2.83
2019-04-01T02:17:09.054Z,2.60
2019-04-01T02:19:37.709Z,3.05
2019-04-01T02:22:06.380Z,2.30
2019-04-01T02:24:35.108Z,2.60
2019-04-01T02:27:03.841Z,2.42
2019-04-01T02:29:32.525Z,2.85
2019-04-01T02:32:01.214Z,2.80
2019-04-01T02:34:29.925Z,2.42
2019-04-01T02:36:58.530Z,2.30
2019-04-01T02:39:27.205Z,2.15
2019-04-01T02:41:55.971Z,2.67
2019-04-01T02:44:24.874Z,2.58
2019-04-01T02:46:53.527Z,3.22
2019-04-01T02:49:22.212Z,2.15
2019-04-01T02:51:50.872Z,2.50
2019-04-01T02:54:19.540Z,2.65
2019-04-01T02:56:48.211Z,3.70
2019-04-01T02:59:16.862Z,2.62
2019-04-01T03:01:45.519Z,2.70
2019-04-01T03:04:14.225Z,3.25
2019-04-01T03:06:42.886Z,2.60
2019-04-01T03:09:11.605Z,2.58
2019-04-01T03:11:40.280Z,3.00
2019-04-01T03:14:08.934Z,2.77
2019-04-01T03:16:37.712Z,2.47
2019-04-01T03:19:06.456Z,2.10
2019-04-01T03:21:35.110Z,2.10
2019-04-01T03:24:03.861Z,4.33
2019-04-01T03:26:32.515Z,2.40
2019-04-01T03:29:01.192Z,2.55
2019-04-01T03:31:29.847Z,2.75
2019-04-01T03:33:58.510Z,2.55
2019-04-01T03:36:27.185Z,2.83
2019-04-01T03:38:55.846Z,2.40
2019-04-01T03:41:24.515Z,2.83
2019-04-01T03:43:53.179Z,2.90
2019-04-01T03:46:21.839Z,2.67
2019-04-01T03:48:50.492Z,3.20
2019-04-01T03:51:19.183Z,2.95
2019-04-01T03:53:47.930Z,2.70
2019-04-01T03:56:16.592Z,3.40
2019-04-01T03:58:45.273Z,2.98
2019-04-01T04:01:13.937Z,2.40
2019-04-01T04:03:42.593Z,2.35
2019-04-01T04:06:11.282Z,2.55
2019-04-01T04:08:39.952Z,2.75
2019-04-01T04:11:08.609Z,2.77
2019-04-01T04:13:37.298Z,2.35
2019-04-01T04:16:05.960Z,3.27
2019-04-01T04:18:34.633Z,2.95
2019-04-01T04:21:03.367Z,3.22
2019-04-01T04:23:32.009Z,3.05
2019-04-01T04:26:00.675Z,3.42
2019-04-01T04:28:29.364Z,2.65
2019-04-01T04:30:58.024Z,3.00
2019-04-01T04:33:26.687Z,4.00
2019-04-01T04:35:55.410Z,2.67
2019-04-01T04:38:24.076Z,2.27
2019-04-01T04:40:52.738Z,3.25
2019-04-01T04:43:21.413Z,2.92
2019-04-01T04:45:50.138Z,3.15
2019-04-01T04:48:18.846Z,2.55
2019-04-01T04:50:47.510Z,2.80
2019-04-01T04:53:16.168Z,2.67
2019-04-01T04:55:44.852Z,2.77
2019-04-01T04:58:13.517Z,3.10
2019-04-01T05:00:42.213Z,4.05
2019-04-01T05:03:10.880Z,3.75
2019-04-01T05:05:39.571Z,3.05
2019-04-01T05:08:08.244Z,3.83
2019-04-01T05:10:36.905Z,3.10
2019-04-01T05:13:05.607Z,11.60
2019-04-01T05:15:34.275Z,5.08
2019-04-01T05:18:02.968Z,3.08
2019-04-01T05:20:32.849Z,3.52
2019-04-01T05:23:03.089Z,4.45
2019-04-01T05:25:32.424Z,4.10
2019-04-01T05:28:03.465Z,3.08
2019-04-01T05:30:34.032Z,3.20
2019-04-01T05:33:04.271Z,3.45
2019-04-01T05:35:35.729Z,3.50
2019-04-01T05:38:05.265Z,3.45
2019-04-01T05:40:34.794Z,3.40
2019-04-01T05:43:03.664Z,3.25
2019-04-01T05:45:32.413Z,2.83
2019-04-01T05:48:01.233Z,4.60
2019-04-01T05:50:29.994Z,3.90
2019-04-01T05:52:58.661Z,3.45
2019-04-01T05:55:27.316Z,3.20
2019-04-01T05:57:56.073Z,3.30
2019-04-01T06:00:30.381Z,2.80
2019-04-01T06:02:59.340Z,4.10
2019-04-01T06:05:28.073Z,3.62
2019-04-01T06:07:56.736Z,3.20
2019-04-01T06:10:25.459Z,3.02
2019-04-01T06:12:54.217Z,4.17
2019-04-01T06:15:22.952Z,3.22
2019-04-01T06:17:51.824Z,3.80
2019-04-01T06:20:20.479Z,3.12
2019-04-01T06:22:49.513Z,3.17
2019-04-01T06:25:18.364Z,3.50
2019-04-01T06:27:47.086Z,3.95
2019-04-01T06:30:15.892Z,5.35
2019-04-01T06:32:44.566Z,3.60
2019-04-01T06:35:13.305Z,3.87
2019-04-01T06:37:41.977Z,4.20
2019-04-01T06:40:10.780Z,3.80
2019-04-01T06:42:39.625Z,4.10
2019-04-01T06:45:08.642Z,3.85
2019-04-01T06:47:37.316Z,3.40
2019-04-01T06:50:06.139Z,3.12
2019-04-01T06:52:34.871Z,3.20
2019-04-01T06:55:03.635Z,5.20
2019-04-01T06:57:32.310Z,3.30
2019-04-01T07:00:01.031Z,2.90
2019-04-01T07:02:29.707Z,2.77
2019-04-01T07:04:58.364Z,2.80
2019-04-01T07:07:27.713Z,2.98
2019-04-01T07:09:56.473Z,4.42
2019-04-01T07:12:25.727Z,3.33
2019-04-01T07:14:54.461Z,3.47
2019-04-01T07:17:23.273Z,3.10
2019-04-01T07:19:51.995Z,2.87
2019-04-01T07:22:20.916Z,3.58
2019-04-01T07:24:49.663Z,3.27
2019-04-01T07:27:18.425Z,2.58
2019-04-01T07:29:47.456Z,3.47
2019-04-01T07:32:16.189Z,3.37
2019-04-01T07:34:45.026Z,3.62
2019-04-01T07:37:13.830Z,3.12
2019-04-01T07:39:42.762Z,3.75
2019-04-01T07:42:11.725Z,3.65
2019-04-01T07:44:40.521Z,3.65
2019-04-01T07:47:09.172Z,4.15
2019-04-01T07:49:37.880Z,3.60
2019-04-01T07:52:06.498Z,4.35
2019-04-01T07:54:35.254Z,3.47
2019-04-01T07:57:04.062Z,3.10
2019-04-01T07:59:32.719Z,3.33
2019-04-01T08:02:01.670Z,3.00
2019-04-01T08:04:30.395Z,3.37
2019-04-01T08:06:59.208Z,3.25
2019-04-01T08:09:28.019Z,2.45
2019-04-01T08:11:56.748Z,2.77
2019-04-01T08:14:25.704Z,2.30
2019-04-01T08:16:54.352Z,2.30
2019-04-01T08:19:23.029Z,2.52
2019-04-01T08:21:52.529Z,3.37
2019-04-01T08:24:21.327Z,2.35
2019-04-01T08:26:50.052Z,2.52
2019-04-01T08:29:29.482Z,2.35
2019-04-01T08:31:49.093Z,2.98
2019-04-01T08:34:17.930Z,1.90
2019-04-01T08:36:46.662Z,2.58
2019-04-01T08:39:15.662Z,2.60
2019-04-01T08:41:44.503Z,2.25
2019-04-01T08:44:13.225Z,2.37
2019-04-01T08:46:42.040Z,2.42
2019-04-01T08:49:10.794Z,2.98
2019-04-01T08:51:39.646Z,2.55
2019-04-01T08:54:08.437Z,2.47
2019-04-01T08:56:38.135Z,2.70
2019-04-01T08:59:07.186Z,2.33
2019-04-01T09:01:35.998Z,2.37
2019-04-01T09:04:04.827Z,2.83
2019-04-01T09:06:33.504Z,2.40
2019-04-01T09:09:04.186Z,2.67
2019-04-01T09:11:33.710Z,2.20
2019-04-01T09:14:02.769Z,2.98
2019-04-01T09:16:31.829Z,2.08
2019-04-01T09:19:00.536Z,2.58
2019-04-01T09:21:29.224Z,2.52
2019-04-01T09:23:57.880Z,2.75
2019-04-01T09:26:26.565Z,3.05
2019-04-01T09:28:55.221Z,2.72
2019-04-01T09:31:23.907Z,2.30
2019-04-01T09:33:52.566Z,2.27
2019-04-01T09:36:21.253Z,2.72
2019-04-01T09:38:49.926Z,2.80
2019-04-01T09:41:18.608Z,2.37
2019-04-01T09:43:47.267Z,2.80
2019-04-01T09:46:15.932Z,3.25
2019-04-01T09:48:44.611Z,1.87
2019-04-01T09:51:13.306Z,2.40
2019-04-01T09:53:41.959Z,2.27
2019-04-01T09:56:10.619Z,2.02
2019-04-01T09:58:39.302Z,2.00
2019-04-01T10:01:11.670Z,2.45
2019-04-01T10:03:40.826Z,2.75
2019-04-01T10:06:10.582Z,2.90
2019-04-01T10:08:42.592Z,2.20
2019-04-01T10:11:12.649Z,2.75
2019-04-01T10:13:40.154Z,1.92
2019-04-01T10:16:08.817Z,2.50
2019-04-01T10:18:37.504Z,2.60
2019-04-01T10:21:06.263Z,2.52
2019-04-01T10:23:34.973Z,2.92
2019-04-01T10:26:03.719Z,3.22
2019-04-01T10:28:32.497Z,2.87
2019-04-01T10:31:01.363Z,2.52
2019-04-01T10:33:30.024Z,2.90
2019-04-01T10:35:58.693Z,2.60
2019-04-01T10:38:27.370Z,3.12
2019-04-01T10:40:56.075Z,2.75
2019-04-01T10:43:24.836Z,2.22
2019-04-01T10:45:53.557Z,2.77
2019-04-01T10:48:22.287Z,2.62
2019-04-01T10:50:50.909Z,2.52
2019-04-01T10:53:19.608Z,2.77
2019-04-01T10:55:48.375Z,2.95
2019-04-01T10:58:17.088Z,2.33
2019-04-01T11:00:45.754Z,2.90
2019-04-01T11:03:14.579Z,2.70
2019-04-01T11:05:43.434Z,2.83
2019-04-01T11:08:12.243Z,2.52
2019-04-01T11:10:40.949Z,3.92
2019-04-01T11:13:09.650Z,2.17
2019-04-01T11:15:38.326Z,2.27
2019-04-01T11:18:07.065Z,2.55
2019-04-01T11:20:36.153Z,3.17
2019-04-01T11:23:05.628Z,2.42
2019-04-01T11:25:34.353Z,2.70
2019-04-01T11:28:03.046Z,2.37
2019-04-01T11:30:31.835Z,2.77
2019-04-01T11:33:00.582Z,3.37
2019-04-01T11:35:29.303Z,3.33
2019-04-01T11:37:57.994Z,3.00
2019-04-01T11:40:26.751Z,2.75
2019-04-01T11:42:55.449Z,3.42
2019-04-01T11:45:24.220Z,2.75
2019-04-01T11:47:52.908Z,3.12
2019-04-01T11:50:21.698Z,2.80
2019-04-01T11:52:50.511Z,3.05
2019-04-01T11:55:19.185Z,2.92
2019-04-01T11:57:47.852Z,2.90
2019-04-01T12:00:18.100Z,2.80
2019-04-01T12:02:46.768Z,2.55
2019-04-01T12:05:15.594Z,2.50
2019-04-01T12:07:44.439Z,2.77
2019-04-01T12:10:13.259Z,2.92
2019-04-01T12:12:41.939Z,2.83
2019-04-01T12:15:12.297Z,2.72
2019-04-01T12:17:42.063Z,2.85
2019-04-01T12:20:11.095Z,3.05
2019-04-01T12:22:40.788Z,2.85
2019-04-01T12:25:10.324Z,3.25
2019-04-01T12:27:38.976Z,2.72
2019-04-01T12:30:08.933Z,2.75
2019-04-01T12:32:37.636Z,2.90
2019-04-01T12:35:06.544Z,2.83
2019-04-01T12:37:35.219Z,2.70
2019-04-01T12:40:04.241Z,2.98
2019-04-01T12:42:32.949Z,2.70
2019-04-01T12:45:01.591Z,2.92
2019-04-01T12:47:30.240Z,2.65
2019-04-01T12:49:58.927Z,2.67
2019-04-01T12:52:27.584Z,3.70
2019-04-01T12:54:56.259Z,3.40
2019-04-01T12:57:24.933Z,3.62
2019-04-01T12:59:53.838Z,2.85
2019-04-01T13:02:22.549Z,3.10
2019-04-01T13:04:51.622Z,2.95
2019-04-01T13:07:20.789Z,2.92
2019-04-01T13:09:49.506Z,3.55
2019-04-01T13:12:18.234Z,2.70
2019-04-01T13:14:46.873Z,2.75
2019-04-01T13:17:15.535Z,3.17
2019-04-01T13:19:45.036Z,2.72
2019-04-01T13:22:14.140Z,3.30
2019-04-01T13:24:42.827Z,3.12
2019-04-01T13:27:11.506Z,3.17
2019-04-01T13:29:40.162Z,3.37
2019-04-01T13:32:08.833Z,3.10
2019-04-01T13:34:37.492Z,3.85
2019-04-01T13:37:06.176Z,3.25
2019-04-01T13:39:34.915Z,3.47
2019-04-01T13:42:03.694Z,2.77
2019-04-01T13:44:37.236Z,2.95
2019-04-01T13:47:02.732Z,3.05
2019-04-01T13:49:31.415Z,3.52
2019-04-01T13:52:03.507Z,3.40
2019-04-01T13:54:30.506Z,3.12
2019-04-01T13:56:59.338Z,3.50
2019-04-01T13:59:27.993Z,2.80
2019-04-01T14:01:57.112Z,3.05
2019-04-01T14:04:27.304Z,3.62
2019-04-01T14:06:56.173Z,3.12
2019-04-01T14:09:24.829Z,3.15
2019-04-01T14:11:53.505Z,2.60
2019-04-01T14:14:22.193Z,3.55
2019-04-01T14:16:50.920Z,3.25
2019-04-01T14:19:19.606Z,2.83
2019-04-01T14:21:48.302Z,3.08
2019-04-01T14:24:16.978Z,3.42
2019-04-01T14:26:45.659Z,2.80
2019-04-01T14:29:16.456Z,3.15
2019-04-01T14:31:44.739Z,3.17
2019-04-01T14:34:22.440Z,3.00
2019-04-01T14:36:43.803Z,2.50
2019-04-01T14:39:12.553Z,2.92
2019-04-01T14:41:41.242Z,2.47
2019-04-01T14:44:09.895Z,3.40
2019-04-01T14:46:38.552Z,3.08
2019-04-01T14:49:07.239Z,2.95
2019-04-01T14:51:35.903Z,2.80
2019-04-01T14:54:05.884Z,2.40
2019-04-01T14:56:34.690Z,3.55
2019-04-01T14:59:03.380Z,2.95
2019-04-01T15:01:32.107Z,2.90
2019-04-01T15:04:00.772Z,2.52
2019-04-01T15:06:29.547Z,3.42
2019-04-01T15:08:58.211Z,3.20
2019-04-01T15:11:26.875Z,2.95
2019-04-01T15:13:55.555Z,3.08
2019-04-01T15:16:24.238Z,3.00
2019-04-01T15:18:53.752Z,2.47
2019-04-01T15:21:22.438Z,3.20
2019-04-01T15:23:53.258Z,2.40
2019-04-01T15:26:21.536Z,2.80
2019-04-01T15:28:50.219Z,2.65
2019-04-01T15:31:18.884Z,2.67
2019-04-01T15:33:47.549Z,2.80
2019-04-01T15:36:16.246Z,3.40
2019-04-01T15:38:44.900Z,3.35
2019-04-01T15:41:13.559Z,3.05
2019-04-01T15:43:42.244Z,3.10
2019-04-01T15:46:10.940Z,2.67
2019-04-01T15:48:39.670Z,3.10
2019-04-01T15:51:08.330Z,2.77
2019-04-01T15:53:37.012Z,3.05
2019-04-01T15:56:05.686Z,3.30
2019-04-01T15:58:35.038Z,3.12
2019-04-01T16:01:03.872Z,3.27
2019-04-01T16:03:33.115Z,2.83
2019-04-01T16:06:02.963Z,3.70
2019-04-01T16:08:32.359Z,2.70
2019-04-01T16:11:01.055Z,3.10
2019-04-01T16:13:29.906Z,3.30
2019-04-01T16:15:58.977Z,3.58
2019-04-01T16:18:27.658Z,2.62
2019-04-01T16:20:59.333Z,3.45
2019-04-01T16:23:27.141Z,3.35
2019-04-01T16:25:56.176Z,3.40
2019-04-01T16:28:24.869Z,3.25
2019-04-01T16:30:53.526Z,3.35
2019-04-01T16:33:22.788Z,3.37
2019-04-01T16:35:52.380Z,2.50
2019-04-01T16:38:21.094Z,3.15
2019-04-01T16:40:52.434Z,3.08
2019-04-01T16:43:20.225Z,3.00
2019-04-01T16:45:49.219Z,3.27
2019-04-01T16:48:17.872Z,3.45
2019-04-01T16:50:46.688Z,3.12
2019-04-01T16:53:15.375Z,2.70
2019-04-01T16:55:44.063Z,2.80
2019-04-01T16:58:12.806Z,2.77
2019-04-01T17:00:41.624Z,3.10
2019-04-01T17:03:13.411Z,3.15
2019-04-01T17:05:40.778Z,2.87
2019-04-01T17:08:10.342Z,2.98
2019-04-01T17:10:39.229Z,2.60
2019-04-01T17:13:08.740Z,3.22
2019-04-01T17:15:37.667Z,2.98
2019-04-01T17:18:06.397Z,3.17
2019-04-01T17:20:36.523Z,3.15
2019-04-01T17:23:05.390Z,3.00
2019-04-01T17:25:34.199Z,2.60
2019-04-01T17:28:02.860Z,3.25
2019-04-01T17:30:31.667Z,2.92
2019-04-01T17:33:00.344Z,3.12
2019-04-01T17:35:29.071Z,3.25
2019-04-01T17:37:57.759Z,3.65
2019-04-01T17:40:26.431Z,2.47
2019-04-01T17:42:55.087Z,2.50
2019-04-01T17:45:35.861Z,3.22
2019-04-01T17:48:05.539Z,2.80
2019-04-01T17:50:34.386Z,3.22
2019-04-01T17:53:04.773Z,3.10
2019-04-01T17:55:33.494Z,3.40
2019-04-01T17:58:02.167Z,3.40
2019-04-01T18:00:31.651Z,3.70
2019-04-01T18:03:00.304Z,3.58
2019-04-01T18:05:28.965Z,3.35
2019-04-01T18:07:57.648Z,3.83
2019-04-01T18:10:28.115Z,4.10
2019-04-01T18:12:56.911Z,3.35
2019-04-01T18:15:25.597Z,3.55
2019-04-01T18:17:54.264Z,4.55
2019-04-01T18:20:22.910Z,3.80
2019-04-01T18:22:51.595Z,5.10
2019-04-01T18:25:21.216Z,6.12
2019-04-01T18:27:50.203Z,6.40
2019-04-01T18:30:19.630Z,4.33
2019-04-01T18:32:52.104Z,4.67
2019-04-01T18:35:18.775Z,4.50
2019-04-01T18:37:48.335Z,5.53
2019-04-01T18:40:31.499Z,3.92
2019-04-01T18:42:48.365Z,4.28
2019-04-01T18:45:17.158Z,4.45
2019-04-01T18:47:45.811Z,4.12
2019-04-01T18:50:14.769Z,4.47
2019-04-01T18:52:43.588Z,4.55
2019-04-01T18:55:12.341Z,5.65
2019-04-01T18:57:40.996Z,5.78
2019-04-01T19:00:10.942Z,5.53
2019-04-01T19:02:39.593Z,8.65
2019-04-01T19:05:10.196Z,7.67
2019-04-01T19:07:39.086Z,6.17
2019-04-01T19:10:08.109Z,5.28
2019-04-01T19:12:36.793Z,4.75
2019-04-01T19:15:06.597Z,4.10
2019-04-01T19:17:35.368Z,4.17
2019-04-01T19:20:04.816Z,3.83
2019-04-01T19:22:33.544Z,4.33
2019-04-01T19:25:02.228Z,4.78
2019-04-01T19:27:30.905Z,4.92
2019-04-01T19:29:59.572Z,5.20
2019-04-01T19:32:28.339Z,4.72
2019-04-01T19:34:57.016Z,5.03
2019-04-01T19:37:27.216Z,5.28
2019-04-01T19:39:56.052Z,6.12
2019-04-01T19:42:24.712Z,5.78
2019-04-01T19:44:53.404Z,5.75
2019-04-01T19:47:22.181Z,5.50
2019-04-01T19:49:51.150Z,6.47
2019-04-01T19:52:19.842Z,6.12
2019-04-01T19:54:48.495Z,6.67
2019-04-01T19:57:17.255Z,5.72
2019-04-01T19:59:45.939Z,5.62
2019-04-01T20:02:14.668Z,7.08
2019-04-01T20:04:43.320Z,6.58
2019-04-01T20:07:12.005Z,5.60
2019-04-01T20:09:40.661Z,5.25
2019-04-01T20:12:09.372Z,5.55
2019-04-01T20:14:38.036Z,5.00
2019-04-01T20:17:06.846Z,5.87
2019-04-01T20:19:35.540Z,5.65
2019-04-01T20:22:04.455Z,5.75
2019-04-01T20:24:33.119Z,5.53
2019-04-01T20:27:01.804Z,5.53
2019-04-01T20:29:30.568Z,6.75
2019-04-01T20:31:59.196Z,5.58
2019-04-01T20:34:27.900Z,8.30
2019-04-01T20:36:56.546Z,5.42
2019-04-01T20:39:25.577Z,4.72
2019-04-01T20:41:54.454Z,5.00
2019-04-01T20:44:23.131Z,5.17
2019-04-01T20:46:51.813Z,5.87
2019-04-01T20:49:20.489Z,5.05
2019-04-01T20:51:49.167Z,5.12
2019-04-01T20:54:17.822Z,4.80
2019-04-01T20:56:46.502Z,6.85
2019-04-01T20:59:15.575Z,5.35
2019-04-01T21:01:44.204Z,4.83
2019-04-01T21:04:12.862Z,5.72
2019-04-01T21:06:41.549Z,5.47
2019-04-01T21:09:10.212Z,5.30
2019-04-01T21:11:39.253Z,5.60
2019-04-01T21:14:08.755Z,5.25
2019-04-01T21:16:37.419Z,5.45
2019-04-01T21:19:06.479Z,5.05
2019-04-01T21:21:35.184Z,5.62
2019-04-01T21:24:05.199Z,5.03
2019-04-01T21:26:33.953Z,4.72
2019-04-01T21:29:02.734Z,5.55
2019-04-01T21:31:31.388Z,4.35
2019-04-01T21:34:00.047Z,5.45
2019-04-01T21:36:28.731Z,6.15
2019-04-01T21:38:57.412Z,5.28
2019-04-01T21:41:26.105Z,5.45
2019-04-01T21:43:54.763Z,5.03
2019-04-01T21:46:24.399Z,5.28
2019-04-01T21:48:53.155Z,5.67
2019-04-01T21:51:21.819Z,5.10
2019-04-01T21:53:50.475Z,5.15
2019-04-01T21:56:19.163Z,5.25
2019-04-01T21:58:48.233Z,5.08
2019-04-01T22:01:17.928Z,5.03
2019-04-01T22:03:46.600Z,5.60
2019-04-01T22:06:15.362Z,5.30
2019-04-01T22:08:44.041Z,5.60
2019-04-01T22:11:12.703Z,5.15
2019-04-01T22:13:41.352Z,5.47
2019-04-01T22:16:10.031Z,4.20
2019-04-01T22:18:38.685Z,4.80
2019-04-01T22:21:07.333Z,4.37
2019-04-01T22:23:36.002Z,5.33
2019-04-01T22:26:04.733Z,4.97
2019-04-01T22:28:33.505Z,5.30
2019-04-01T22:31:02.380Z,5.75
2019-04-01T22:33:31.023Z,3.87
2019-04-01T22:35:59.673Z,4.40
2019-04-01T22:38:28.359Z,4.47
2019-04-01T22:40:57.006Z,4.58
2019-04-01T22:43:25.821Z,4.80
2019-04-01T22:45:54.499Z,4.92
2019-04-01T22:48:23.158Z,4.47
2019-04-01T22:50:51.801Z,4.80
2019-04-01T22:53:20.464Z,4.95
2019-04-01T22:55:49.170Z,4.92
2019-04-01T22:58:17.830Z,4.33
2019-04-01T23:00:47.181Z,6.35
2019-04-01T23:03:16.360Z,4.53
2019-04-01T23:05:45.002Z,4.47
2019-04-01T23:08:13.730Z,5.40
2019-04-01T23:10:42.404Z,4.85
2019-04-01T23:13:11.088Z,4.33
2019-04-01T23:15:39.736Z,4.47
2019-04-01T23:18:08.385Z,4.80
2019-04-01T23:20:37.063Z,5.12
2019-04-01T23:23:05.710Z,4.87
2019-04-01T23:25:34.391Z,4.35
2019-04-01T23:28:03.064Z,5.00
2019-04-01T23:30:31.746Z,5.42
2019-04-01T23:33:00.426Z,5.28
2019-04-01T23:35:29.105Z,4.75
2019-04-01T23:37:57.757Z,5.25
2019-04-01T23:40:26.409Z,4.95
2019-04-01T23:42:55.111Z,5.92
2019-04-01T23:45:23.756Z,5.28
2019-04-01T23:47:52.412Z,5.60
2019-04-01T23:50:21.082Z,4.85
2019-04-01T23:52:49.735Z,5.60
2019-04-01T23:55:18.413Z,4.70
2019-04-01T23:57:47.079Z,5.33
